sensor_id;sensor_type;location;lat;lon;timestamp;pressure;altitude;pressure_sealevel;temperature;humidity
13434;BME280;6789;47.678;9.158;2024-03-23T00:56:44;53268.94;;;-138.23;68.57
13434;BME280;6789;47.678;9.158;2024-03-23T01:01:35;53240.81;;;-138.23;69.26
13434;BME280;6789;47.678;9.158;2024-03-23T01:06:26;53264.91;;;-138.23;68.88
13434;BME280;6789;47.678;9.158;2024-03-23T01:11:17;53248.84;;;-138.23;70.02
13434;BME280;6789;47.678;9.158;2024-03-23T01:16:08;53254.88;;;-138.23;70.59
13434;BME280;6789;47.678;9.158;2024-03-23T01:20:59;53264.91;;;-138.23;70.99
13434;BME280;6789;47.678;9.158;2024-03-23T01:25:54;53260.91;;;-138.23;70.95
13434;BME280;6789;47.678;9.158;2024-03-23T01:30:45;53258.88;;;-138.23;71.93
13434;BME280;6789;47.678;9.158;2024-03-23T01:35:36;53305.06;;;-138.23;71.92
13434;BME280;6789;47.678;9.158;2024-03-23T01:40:26;53276.97;;;-138.23;72.38
13434;BME280;6789;47.678;9.158;2024-03-23T01:45:22;53274.94;;;-138.23;72.13
13434;BME280;6789;47.678;9.158;2024-03-23T01:50:14;53276.97;;;-138.23;72.56
13434;BME280;6789;47.678;9.158;2024-03-23T01:55:05;53276.97;;;-138.23;72.24
13434;BME280;6789;47.678;9.158;2024-03-23T01:59:56;53254.88;;;-138.23;72.41
13434;BME280;6789;47.678;9.158;2024-03-23T02:04:47;53280.97;;;-138.23;72.16
13434;BME280;6789;47.678;9.158;2024-03-23T02:09:38;53327.16;;;-138.23;71.42
13434;BME280;6789;47.678;9.158;2024-03-23T02:14:29;53274.94;;;-138.23;71.44
13434;BME280;6789;47.678;9.158;2024-03-23T02:19:20;53264.91;;;-138.23;71.80
13434;BME280;6789;47.678;9.158;2024-03-23T02:24:10;53264.91;;;-138.23;72.78
13434;BME280;6789;47.678;9.158;2024-03-23T02:29:01;53256.88;;;-138.23;73.06
13434;BME280;6789;47.678;9.158;2024-03-23T02:33:52;53252.88;;;-138.23;73.31
13434;BME280;6789;47.678;9.158;2024-03-23T02:38:43;53276.97;;;-138.23;72.68
13434;BME280;6789;47.678;9.158;2024-03-23T02:43:34;53280.97;;;-138.23;72.28
13434;BME280;6789;47.678;9.158;2024-03-23T02:48:24;53256.88;;;-138.23;71.20
13434;BME280;6789;47.678;9.158;2024-03-23T02:53:15;53303.06;;;-138.23;70.67
13434;BME280;6789;47.678;9.158;2024-03-23T02:58:06;53250.84;;;-138.23;70.99
13434;BME280;6789;47.678;9.158;2024-03-23T03:02:57;53270.94;;;-138.23;71.75
13434;BME280;6789;47.678;9.158;2024-03-23T03:07:48;53299.06;;;-138.23;72.16
13434;BME280;6789;47.678;9.158;2024-03-23T03:12:39;53276.97;;;-138.23;70.70
13434;BME280;6789;47.678;9.158;2024-03-23T03:17:30;53272.94;;;-138.23;71.40
13434;BME280;6789;47.678;9.158;2024-03-23T03:22:22;53276.97;;;-138.23;71.70
13434;BME280;6789;47.678;9.158;2024-03-23T03:27:13;53283.00;;;-138.23;71.91
13434;BME280;6789;47.678;9.158;2024-03-23T03:32:04;53283.00;;;-138.23;71.11
13434;BME280;6789;47.678;9.158;2024-03-23T03:36:56;53297.03;;;-138.23;69.96
13434;BME280;6789;47.678;9.158;2024-03-23T03:41:47;53276.97;;;-138.23;70.67
13434;BME280;6789;47.678;9.158;2024-03-23T03:46:38;53270.94;;;-138.23;71.04
13434;BME280;6789;47.678;9.158;2024-03-23T03:51:29;53276.97;;;-138.23;71.33
13434;BME280;6789;47.678;9.158;2024-03-23T03:56:20;53297.03;;;-138.23;71.99
13434;BME280;6789;47.678;9.158;2024-03-23T04:01:10;53260.91;;;-138.23;72.75
13434;BME280;6789;47.678;9.158;2024-03-23T04:06:01;53258.88;;;-138.23;73.49
13434;BME280;6789;47.678;9.158;2024-03-23T04:10:52;53291.03;;;-138.23;73.95
13434;BME280;6789;47.678;9.158;2024-03-23T04:15:43;53321.13;;;-138.23;74.43
13434;BME280;6789;47.678;9.158;2024-03-23T04:20:34;53299.06;;;-138.23;74.71
13434;BME280;6789;47.678;9.158;2024-03-23T04:25:25;53264.91;;;-138.23;74.98
13434;BME280;6789;47.678;9.158;2024-03-23T04:30:16;53272.94;;;-138.23;73.68
13434;BME280;6789;47.678;9.158;2024-03-23T04:35:07;53272.94;;;-138.23;73.83
13434;BME280;6789;47.678;9.158;2024-03-23T04:40:04;53293.03;;;-138.23;73.95
13434;BME280;6789;47.678;9.158;2024-03-23T04:44:55;53291.03;;;-138.23;74.12
13434;BME280;6789;47.678;9.158;2024-03-23T04:49:46;53278.97;;;-138.23;74.31
13434;BME280;6789;47.678;9.158;2024-03-23T04:54:37;53295.03;;;-138.23;74.43
13434;BME280;6789;47.678;9.158;2024-03-23T04:59:52;53264.91;;;-138.23;74.26
13434;BME280;6789;47.678;9.158;2024-03-23T05:04:58;53287.00;;;-138.23;72.99
13434;BME280;6789;47.678;9.158;2024-03-23T05:09:49;53260.91;;;-138.23;72.68
13434;BME280;6789;47.678;9.158;2024-03-23T05:14:40;53276.97;;;-138.23;72.59
13434;BME280;6789;47.678;9.158;2024-03-23T05:19:30;53268.94;;;-138.23;71.02
13434;BME280;6789;47.678;9.158;2024-03-23T05:24:21;53252.88;;;-138.23;69.94
13434;BME280;6789;47.678;9.158;2024-03-23T05:29:12;53262.91;;;-138.23;69.55
13434;BME280;6789;47.678;9.158;2024-03-23T05:34:04;53266.91;;;-138.23;69.20
13434;BME280;6789;47.678;9.158;2024-03-23T05:38:55;53252.88;;;-138.23;66.76
13434;BME280;6789;47.678;9.158;2024-03-23T05:43:45;53230.78;;;-138.23;66.32
13434;BME280;6789;47.678;9.158;2024-03-23T05:48:36;53230.78;;;-138.23;64.57
13434;BME280;6789;47.678;9.158;2024-03-23T05:53:27;53254.88;;;-138.23;65.81
13434;BME280;6789;47.678;9.158;2024-03-23T05:58:21;53228.78;;;-138.23;67.30
13434;BME280;6789;47.678;9.158;2024-03-23T06:03:12;53246.84;;;-138.23;69.68
13434;BME280;6789;47.678;9.158;2024-03-23T06:08:13;53236.81;;;-138.23;70.96
13434;BME280;6789;47.678;9.158;2024-03-23T06:13:20;53220.75;;;-138.23;72.05
13434;BME280;6789;47.678;9.158;2024-03-23T06:18:15;53222.75;;;-138.23;73.64
13434;BME280;6789;47.678;9.158;2024-03-23T06:23:06;53246.84;;;-138.23;75.33
13434;BME280;6789;47.678;9.158;2024-03-23T06:27:57;53212.72;;;-138.23;77.50
13434;BME280;6789;47.678;9.158;2024-03-23T06:32:48;53264.91;;;-138.23;79.75
13434;BME280;6789;47.678;9.158;2024-03-23T06:37:39;53242.81;;;-138.23;80.21
13434;BME280;6789;47.678;9.158;2024-03-23T06:42:31;53248.84;;;-138.23;77.40
13434;BME280;6789;47.678;9.158;2024-03-23T06:47:22;53276.97;;;-138.23;75.33
13434;BME280;6789;47.678;9.158;2024-03-23T06:52:14;53244.84;;;-138.23;73.59
13434;BME280;6789;47.678;9.158;2024-03-23T06:57:09;53242.81;;;-138.23;70.77
13434;BME280;6789;47.678;9.158;2024-03-23T07:02:00;53240.81;;;-138.23;71.06
13434;BME280;6789;47.678;9.158;2024-03-23T07:06:50;53238.81;;;-138.23;70.04
13434;BME280;6789;47.678;9.158;2024-03-23T07:11:42;53238.81;;;-138.23;69.86
13434;BME280;6789;47.678;9.158;2024-03-23T07:16:33;53194.63;;;-138.23;69.98
13434;BME280;6789;47.678;9.158;2024-03-23T07:21:24;53248.84;;;-138.23;68.68
13434;BME280;6789;47.678;9.158;2024-03-23T07:26:15;53222.75;;;-138.23;68.69
13434;BME280;6789;47.678;9.158;2024-03-23T07:31:08;53240.81;;;-138.23;67.81
13434;BME280;6789;47.678;9.158;2024-03-23T07:35:59;53214.72;;;-138.23;67.83
13434;BME280;6789;47.678;9.158;2024-03-23T07:40:50;53218.72;;;-138.23;68.54
13434;BME280;6789;47.678;9.158;2024-03-23T07:45:52;53250.84;;;-138.23;68.37
13434;BME280;6789;47.678;9.158;2024-03-23T07:50:43;53242.81;;;-138.23;68.55
13434;BME280;6789;47.678;9.158;2024-03-23T07:55:34;53228.78;;;-138.23;67.76
13434;BME280;6789;47.678;9.158;2024-03-23T08:00:25;53240.81;;;-138.23;67.25
13434;BME280;6789;47.678;9.158;2024-03-23T08:05:16;53224.75;;;-138.23;67.25
13434;BME280;6789;47.678;9.158;2024-03-23T08:10:07;53198.66;;;-138.23;67.32
13434;BME280;6789;47.678;9.158;2024-03-23T08:14:57;53222.75;;;-138.23;66.75
13434;BME280;6789;47.678;9.158;2024-03-23T08:19:48;53222.75;;;-138.23;67.01
13434;BME280;6789;47.678;9.158;2024-03-23T08:24:39;53232.78;;;-138.23;61.15
13434;BME280;6789;47.678;9.158;2024-03-23T08:29:38;53242.81;;;-138.23;61.22
13434;BME280;6789;47.678;9.158;2024-03-23T08:34:28;53250.84;;;-138.23;62.77
13434;BME280;6789;47.678;9.158;2024-03-23T08:39:19;53244.84;;;-138.23;65.33
13434;BME280;6789;47.678;9.158;2024-03-23T08:44:10;53278.97;;;-138.23;67.67
13434;BME280;6789;47.678;9.158;2024-03-23T08:49:01;53291.03;;;-138.23;70.18
13434;BME280;6789;47.678;9.158;2024-03-23T08:53:52;53256.88;;;-138.23;71.59
13434;BME280;6789;47.678;9.158;2024-03-23T08:58:43;53260.91;;;-138.23;70.01
13434;BME280;6789;47.678;9.158;2024-03-23T09:03:34;53262.91;;;-138.23;68.02
13434;BME280;6789;47.678;9.158;2024-03-23T09:08:25;53246.84;;;-138.23;65.46
13434;BME280;6789;47.678;9.158;2024-03-23T09:13:16;53252.88;;;-138.23;64.92
13434;BME280;6789;47.678;9.158;2024-03-23T09:18:07;53268.94;;;-138.23;64.49
13434;BME280;6789;47.678;9.158;2024-03-23T09:22:58;53260.91;;;-138.23;64.81
13434;BME280;6789;47.678;9.158;2024-03-23T09:27:50;53212.72;;;-138.23;63.68
13434;BME280;6789;47.678;9.158;2024-03-23T09:32:44;53256.88;;;-138.23;63.88
13434;BME280;6789;47.678;9.158;2024-03-23T09:37:34;53242.81;;;-138.23;63.06
13434;BME280;6789;47.678;9.158;2024-03-23T09:42:25;53244.84;;;-138.23;62.47
13434;BME280;6789;47.678;9.158;2024-03-23T09:47:17;53230.78;;;-138.23;62.55
13434;BME280;6789;47.678;9.158;2024-03-23T09:52:08;53240.81;;;-138.23;59.85
13434;BME280;6789;47.678;9.158;2024-03-23T09:56:59;53244.84;;;-138.23;59.73
13434;BME280;6789;47.678;9.158;2024-03-23T10:01:50;53230.78;;;-138.23;59.50
13434;BME280;6789;47.678;9.158;2024-03-23T10:06:41;53264.91;;;-138.23;59.10
13434;BME280;6789;47.678;9.158;2024-03-23T10:11:32;53212.72;;;-138.23;57.82
13434;BME280;6789;47.678;9.158;2024-03-23T10:16:24;53258.88;;;-138.23;57.33
13434;BME280;6789;47.678;9.158;2024-03-23T10:21:16;53224.75;;;-138.23;57.18
13434;BME280;6789;47.678;9.158;2024-03-23T10:26:19;53214.72;;;-138.23;56.49
13434;BME280;6789;47.678;9.158;2024-03-23T10:31:11;53244.84;;;-138.23;54.97
13434;BME280;6789;47.678;9.158;2024-03-23T10:36:06;53240.81;;;-138.23;54.34
13434;BME280;6789;47.678;9.158;2024-03-23T10:40:59;53236.81;;;-138.23;52.20
13434;BME280;6789;47.678;9.158;2024-03-23T10:45:50;53224.75;;;-138.23;52.82
13434;BME280;6789;47.678;9.158;2024-03-23T10:50:41;53204.66;;;-138.23;53.53
13434;BME280;6789;47.678;9.158;2024-03-23T10:55:33;53232.78;;;-138.23;53.85
13434;BME280;6789;47.678;9.158;2024-03-23T11:00:25;53228.78;;;-138.23;51.04
13434;BME280;6789;47.678;9.158;2024-03-23T11:10:28;53216.72;;;-138.23;50.74
13434;BME280;6789;47.678;9.158;2024-03-23T11:15:20;53184.59;;;-138.23;49.49
13434;BME280;6789;47.678;9.158;2024-03-23T11:20:11;53208.69;;;-138.23;49.10
13434;BME280;6789;47.678;9.158;2024-03-23T11:25:23;53196.63;;;-138.23;46.98
13434;BME280;6789;47.678;9.158;2024-03-23T11:30:16;53168.53;;;-138.23;46.25
13434;BME280;6789;47.678;9.158;2024-03-23T11:35:07;53176.56;;;-138.23;44.77
13434;BME280;6789;47.678;9.158;2024-03-23T11:40:00;53184.59;;;-138.23;44.04
13434;BME280;6789;47.678;9.158;2024-03-23T11:44:52;53184.59;;;-138.23;40.76
13434;BME280;6789;47.678;9.158;2024-03-23T11:49:43;53168.53;;;-138.23;40.75
13434;BME280;6789;47.678;9.158;2024-03-23T11:54:34;53164.50;;;-138.23;40.57
13434;BME280;6789;47.678;9.158;2024-03-23T11:59:38;53202.66;;;-138.23;41.13
13434;BME280;6789;47.678;9.158;2024-03-23T12:04:30;53184.59;;;-138.23;41.00
13434;BME280;6789;47.678;9.158;2024-03-23T12:09:22;53166.53;;;-138.23;41.09
13434;BME280;6789;47.678;9.158;2024-03-23T12:14:14;53160.50;;;-138.23;40.80
13434;BME280;6789;47.678;9.158;2024-03-23T12:19:05;53176.56;;;-138.23;40.43
13434;BME280;6789;47.678;9.158;2024-03-23T12:23:56;53172.53;;;-138.23;40.21
13434;BME280;6789;47.678;9.158;2024-03-23T12:28:47;53188.59;;;-138.23;39.73
13434;BME280;6789;47.678;9.158;2024-03-23T12:33:38;53168.53;;;-138.23;40.40
13434;BME280;6789;47.678;9.158;2024-03-23T12:38:29;53170.53;;;-138.23;41.01
13434;BME280;6789;47.678;9.158;2024-03-23T12:43:20;53176.56;;;-138.23;42.50
13434;BME280;6789;47.678;9.158;2024-03-23T12:48:10;53168.53;;;-138.23;44.03
13434;BME280;6789;47.678;9.158;2024-03-23T12:53:01;53168.53;;;-138.23;46.66
13434;BME280;6789;47.678;9.158;2024-03-23T12:57:52;53222.75;;;-138.23;49.84
13434;BME280;6789;47.678;9.158;2024-03-23T13:02:44;53192.63;;;-138.23;49.59
13434;BME280;6789;47.678;9.158;2024-03-23T13:07:35;53212.72;;;-138.23;51.20
13434;BME280;6789;47.678;9.158;2024-03-23T13:28:16;53200.66;;;-138.23;49.38
13434;BME280;6789;47.678;9.158;2024-03-23T13:33:08;53228.78;;;-138.23;48.47
13434;BME280;6789;47.678;9.158;2024-03-23T13:38:00;53204.66;;;-138.23;45.30
13434;BME280;6789;47.678;9.158;2024-03-23T13:42:51;53186.59;;;-138.23;45.73
13434;BME280;6789;47.678;9.158;2024-03-23T13:47:42;53184.59;;;-138.23;45.11
13434;BME280;6789;47.678;9.158;2024-03-23T13:52:33;53236.81;;;-138.23;44.94
13434;BME280;6789;47.678;9.158;2024-03-23T13:57:25;53200.66;;;-138.23;44.11
13434;BME280;6789;47.678;9.158;2024-03-23T14:02:16;53208.69;;;-138.23;45.47
13434;BME280;6789;47.678;9.158;2024-03-23T14:07:07;53186.59;;;-138.23;45.73
13434;BME280;6789;47.678;9.158;2024-03-23T14:11:59;53208.69;;;-138.23;45.38
13434;BME280;6789;47.678;9.158;2024-03-23T14:16:50;53200.66;;;-138.23;44.50
13434;BME280;6789;47.678;9.158;2024-03-23T14:21:41;53200.66;;;-138.23;43.73
13434;BME280;6789;47.678;9.158;2024-03-23T14:26:32;53220.75;;;-138.23;46.04
13434;BME280;6789;47.678;9.158;2024-03-23T14:31:24;53188.59;;;-138.23;45.45
13434;BME280;6789;47.678;9.158;2024-03-23T14:36:16;53212.72;;;-138.23;42.90
13434;BME280;6789;47.678;9.158;2024-03-23T14:41:08;53222.75;;;-138.23;42.60
13434;BME280;6789;47.678;9.158;2024-03-23T14:46:13;53204.66;;;-138.23;43.54
13434;BME280;6789;47.678;9.158;2024-03-23T14:51:06;53204.66;;;-138.23;45.14
13434;BME280;6789;47.678;9.158;2024-03-23T14:56:12;53226.75;;;-138.23;46.36
13434;BME280;6789;47.678;9.158;2024-03-23T15:01:08;53208.69;;;-138.23;44.69
13434;BME280;6789;47.678;9.158;2024-03-23T15:06:02;53230.78;;;-138.23;44.24
13434;BME280;6789;47.678;9.158;2024-03-23T15:10:53;53194.63;;;-138.23;46.37
13434;BME280;6789;47.678;9.158;2024-03-23T15:15:45;53192.63;;;-138.23;44.47
13434;BME280;6789;47.678;9.158;2024-03-23T15:20:35;53204.66;;;-138.23;44.40
13434;BME280;6789;47.678;9.158;2024-03-23T15:25:26;53198.66;;;-138.23;44.88
13434;BME280;6789;47.678;9.158;2024-03-23T15:30:17;53228.78;;;-138.23;44.84
13434;BME280;6789;47.678;9.158;2024-03-23T15:35:08;53204.66;;;-138.23;44.14
13434;BME280;6789;47.678;9.158;2024-03-23T15:39:59;53200.66;;;-138.23;43.41
13434;BME280;6789;47.678;9.158;2024-03-23T15:44:50;53188.59;;;-138.23;41.21
13434;BME280;6789;47.678;9.158;2024-03-23T15:49:41;53216.72;;;-138.23;42.02
13434;BME280;6789;47.678;9.158;2024-03-23T15:54:32;53216.72;;;-138.23;41.22
13434;BME280;6789;47.678;9.158;2024-03-23T15:59:23;53208.69;;;-138.23;41.00
13434;BME280;6789;47.678;9.158;2024-03-23T16:04:14;53224.75;;;-138.23;39.49
13434;BME280;6789;47.678;9.158;2024-03-23T16:09:06;53182.59;;;-138.23;38.86
13434;BME280;6789;47.678;9.158;2024-03-23T16:13:56;53204.66;;;-138.23;39.11
13434;BME280;6789;47.678;9.158;2024-03-23T16:18:47;53202.66;;;-138.23;40.83
13434;BME280;6789;47.678;9.158;2024-03-23T16:23:38;53200.66;;;-138.23;40.06
13434;BME280;6789;47.678;9.158;2024-03-23T16:28:34;53232.78;;;-138.23;41.00
13434;BME280;6789;47.678;9.158;2024-03-23T16:33:26;53208.69;;;-138.23;38.90
13434;BME280;6789;47.678;9.158;2024-03-23T16:38:19;53176.56;;;-138.23;39.67
13434;BME280;6789;47.678;9.158;2024-03-23T16:43:10;53222.75;;;-138.23;43.08
13434;BME280;6789;47.678;9.158;2024-03-23T16:48:01;53202.66;;;-138.23;44.59
13434;BME280;6789;47.678;9.158;2024-03-23T16:52:54;53224.75;;;-138.23;44.53
13434;BME280;6789;47.678;9.158;2024-03-23T16:57:44;53228.78;;;-138.23;44.83
13434;BME280;6789;47.678;9.158;2024-03-23T17:02:35;53224.75;;;-138.23;43.36
13434;BME280;6789;47.678;9.158;2024-03-23T17:07:29;53218.72;;;-138.23;43.60
13434;BME280;6789;47.678;9.158;2024-03-23T17:12:21;53236.81;;;-138.23;43.38
13434;BME280;6789;47.678;9.158;2024-03-23T17:17:12;53198.66;;;-138.23;44.94
13434;BME280;6789;47.678;9.158;2024-03-23T17:22:03;53214.72;;;-138.23;44.90
13434;BME280;6789;47.678;9.158;2024-03-23T17:26:54;53248.84;;;-138.23;44.88
13434;BME280;6789;47.678;9.158;2024-03-23T17:31:45;53236.81;;;-138.23;46.30
13434;BME280;6789;47.678;9.158;2024-03-23T17:36:36;53212.72;;;-138.23;46.88
13434;BME280;6789;47.678;9.158;2024-03-23T17:41:29;53240.81;;;-138.23;47.45
13434;BME280;6789;47.678;9.158;2024-03-23T17:46:19;53240.81;;;-138.23;47.76
13434;BME280;6789;47.678;9.158;2024-03-23T17:51:10;53256.88;;;-138.23;48.04
13434;BME280;6789;47.678;9.158;2024-03-23T17:56:04;53230.78;;;-138.23;48.50
13434;BME280;6789;47.678;9.158;2024-03-23T18:00:55;53254.88;;;-138.23;47.91
13434;BME280;6789;47.678;9.158;2024-03-23T18:05:46;53244.84;;;-138.23;46.55
13434;BME280;6789;47.678;9.158;2024-03-23T18:10:37;53230.78;;;-138.23;48.73
13434;BME280;6789;47.678;9.158;2024-03-23T18:15:28;53252.88;;;-138.23;52.42
13434;BME280;6789;47.678;9.158;2024-03-23T18:20:19;53268.94;;;-138.23;62.96
13434;BME280;6789;47.678;9.158;2024-03-23T18:25:10;53309.09;;;-138.23;70.06
13434;BME280;6789;47.678;9.158;2024-03-23T18:30:01;53274.94;;;-138.23;71.99
13434;BME280;6789;47.678;9.158;2024-03-23T18:34:52;53311.09;;;-138.23;73.75
13434;BME280;6789;47.678;9.158;2024-03-23T18:39:43;53280.97;;;-138.23;77.22
13434;BME280;6789;47.678;9.158;2024-03-23T18:44:34;53345.22;;;-138.23;78.35
13434;BME280;6789;47.678;9.158;2024-03-23T18:49:24;53305.06;;;-138.23;79.65
13434;BME280;6789;47.678;9.158;2024-03-23T18:54:15;53333.19;;;-138.23;81.24
13434;BME280;6789;47.678;9.158;2024-03-23T18:59:06;53317.13;;;-138.23;82.71
13434;BME280;6789;47.678;9.158;2024-03-23T19:03:57;53319.13;;;-138.23;84.33
13434;BME280;6789;47.678;9.158;2024-03-23T19:08:48;53333.19;;;-138.23;85.03
13434;BME280;6789;47.678;9.158;2024-03-23T19:13:39;53361.31;;;-138.23;83.79
13434;BME280;6789;47.678;9.158;2024-03-23T19:18:32;53327.16;;;-138.23;84.14
13434;BME280;6789;47.678;9.158;2024-03-23T19:23:23;53331.19;;;-138.23;83.19
13434;BME280;6789;47.678;9.158;2024-03-23T19:28:15;53291.03;;;-138.23;81.23
13434;BME280;6789;47.678;9.158;2024-03-23T19:33:12;53309.09;;;-138.23;79.75
13434;BME280;6789;47.678;9.158;2024-03-23T19:38:17;53321.13;;;-138.23;81.49
13434;BME280;6789;47.678;9.158;2024-03-23T19:43:08;53315.13;;;-138.23;81.80
13434;BME280;6789;47.678;9.158;2024-03-23T19:48:00;53297.03;;;-138.23;78.46
13434;BME280;6789;47.678;9.158;2024-03-23T19:52:51;53321.13;;;-138.23;78.80
13434;BME280;6789;47.678;9.158;2024-03-23T19:57:42;53321.13;;;-138.23;78.71
13434;BME280;6789;47.678;9.158;2024-03-23T20:02:33;53345.22;;;-138.23;78.73
13434;BME280;6789;47.678;9.158;2024-03-23T20:07:24;53343.22;;;-138.23;79.57
13434;BME280;6789;47.678;9.158;2024-03-23T20:12:15;53335.19;;;-138.23;80.22
13434;BME280;6789;47.678;9.158;2024-03-23T20:17:06;53339.22;;;-138.23;78.06
13434;BME280;6789;47.678;9.158;2024-03-23T20:21:57;53341.22;;;-138.23;77.35
13434;BME280;6789;47.678;9.158;2024-03-23T20:26:48;53325.16;;;-138.23;76.76
13434;BME280;6789;47.678;9.158;2024-03-23T20:31:39;53317.13;;;-138.23;76.49
13434;BME280;6789;47.678;9.158;2024-03-23T20:36:29;53311.09;;;-138.23;76.98
13434;BME280;6789;47.678;9.158;2024-03-23T20:41:20;53357.28;;;-138.23;76.57
13434;BME280;6789;47.678;9.158;2024-03-23T20:46:13;53349.25;;;-138.23;76.80
13434;BME280;6789;47.678;9.158;2024-03-23T20:51:04;53313.09;;;-138.23;76.49
13434;BME280;6789;47.678;9.158;2024-03-23T20:55:57;53309.09;;;-138.23;75.89
13434;BME280;6789;47.678;9.158;2024-03-23T21:00:48;53335.19;;;-138.23;75.88
13434;BME280;6789;47.678;9.158;2024-03-23T21:05:40;53369.34;;;-138.23;75.20
13434;BME280;6789;47.678;9.158;2024-03-23T21:10:31;53301.06;;;-138.23;75.74
13434;BME280;6789;47.678;9.158;2024-03-23T21:15:22;53309.09;;;-138.23;76.37
13434;BME280;6789;47.678;9.158;2024-03-23T21:20:13;53311.09;;;-138.23;76.05
13434;BME280;6789;47.678;9.158;2024-03-23T21:25:04;53325.16;;;-138.23;77.34
13434;BME280;6789;47.678;9.158;2024-03-23T21:29:55;53333.19;;;-138.23;79.11
13434;BME280;6789;47.678;9.158;2024-03-23T21:34:46;53305.06;;;-138.23;81.28
13434;BME280;6789;47.678;9.158;2024-03-23T21:39:36;53329.16;;;-138.23;81.42
13434;BME280;6789;47.678;9.158;2024-03-23T21:44:27;53335.19;;;-138.23;81.72
13434;BME280;6789;47.678;9.158;2024-03-23T21:49:18;53301.06;;;-138.23;81.36
13434;BME280;6789;47.678;9.158;2024-03-23T21:54:09;53329.16;;;-138.23;81.94
13434;BME280;6789;47.678;9.158;2024-03-23T21:59:00;53337.19;;;-138.23;82.86
13434;BME280;6789;47.678;9.158;2024-03-23T22:03:51;53367.31;;;-138.23;82.13
13434;BME280;6789;47.678;9.158;2024-03-23T22:08:42;53313.09;;;-138.23;82.00
13434;BME280;6789;47.678;9.158;2024-03-23T22:13:33;53299.06;;;-138.23;82.42
13434;BME280;6789;47.678;9.158;2024-03-23T22:18:24;53319.13;;;-138.23;82.75
13434;BME280;6789;47.678;9.158;2024-03-23T22:23:15;53337.19;;;-138.23;82.66
13434;BME280;6789;47.678;9.158;2024-03-23T22:28:06;53365.31;;;-138.23;82.90
13434;BME280;6789;47.678;9.158;2024-03-23T22:32:57;53351.25;;;-138.23;83.00
13434;BME280;6789;47.678;9.158;2024-03-23T22:37:50;53327.16;;;-138.23;82.05
13434;BME280;6789;47.678;9.158;2024-03-23T22:42:41;53317.13;;;-138.23;81.14
13434;BME280;6789;47.678;9.158;2024-03-23T22:47:32;53317.13;;;-138.23;81.13
13434;BME280;6789;47.678;9.158;2024-03-23T22:52:23;53345.22;;;-138.23;80.53
13434;BME280;6789;47.678;9.158;2024-03-23T22:57:14;53341.22;;;-138.23;80.33
13434;BME280;6789;47.678;9.158;2024-03-23T23:13:28;53349.25;;;-138.23;79.79
13434;BME280;6789;47.678;9.158;2024-03-23T23:18:20;53359.28;;;-138.23;79.67
13434;BME280;6789;47.678;9.158;2024-03-23T23:23:13;53333.19;;;-138.23;79.33
13434;BME280;6789;47.678;9.158;2024-03-23T23:28:04;53331.19;;;-138.23;79.41
13434;BME280;6789;47.678;9.158;2024-03-23T23:32:54;53349.25;;;-138.23;78.49
13434;BME280;6789;47.678;9.158;2024-03-23T23:37:45;53333.19;;;-138.23;78.70
13434;BME280;6789;47.678;9.158;2024-03-23T23:42:36;53383.38;;;-138.23;77.80
13434;BME280;6789;47.678;9.158;2024-03-23T23:47:27;53319.13;;;-138.23;78.22
13434;BME280;6789;47.678;9.158;2024-03-23T23:52:18;53319.13;;;-138.23;78.21
13434;BME280;6789;47.678;9.158;2024-03-23T23:57:09;53373.34;;;-138.23;76.82
